Viboras, Texas
Current Conditions -  °F | °C
As of 8:15 AM on Thursday 23 Oct 2014 (Local Time) from KHBV Reporting Station
Broken Clouds Broken Clouds  
Wind Chill: 67°   Ceiling: 10000
Heat Index: 67°   Visibility: 10mi
Dew Point: 64°   Wind: 3mph
Humidity: 90%   Direction: 10°N
Pressure: 30.09"   Gusts: NA
Location:  27.0695°N, 98.7494°W
Report Text: KHBV 231315Z AUTO 01003KT 10SM BKN100 19/18 A3009 RMK AO2 T01920175 PWINO
Loading
Personal Weather Stations






























Interactive Weather Map
Tropical Storm Tracking
New forecast layout! Learn more

10-Day Weather Forecast

Advertisements
Track Severe Weather on mobile